createdAt,value
2018-01-03T00:00:21.505Z,0
2018-01-03T00:01:30.431Z,0
2018-01-03T00:02:39.255Z,0
2018-01-03T00:03:48.084Z,0
2018-01-03T00:04:56.910Z,0
2018-01-03T00:06:05.740Z,0
2018-01-03T00:07:14.670Z,0
2018-01-03T00:08:23.495Z,0
2018-01-03T00:09:32.320Z,0
2018-01-03T00:10:41.147Z,0
2018-01-03T00:11:49.970Z,0
2018-01-03T00:12:58.845Z,0
2018-01-03T00:14:07.670Z,0
2018-01-03T00:15:16.495Z,0
2018-01-03T00:16:25.594Z,0
2018-01-03T00:17:34.420Z,0
2018-01-03T00:18:43.246Z,0
2018-01-03T00:19:52.075Z,0
2018-01-03T00:21:00.902Z,0
2018-01-03T00:22:09.731Z,0
2018-01-03T00:23:18.555Z,0
2018-01-03T00:24:27.682Z,0
2018-01-03T00:25:36.508Z,0
2018-01-03T00:26:45.332Z,0
2018-01-03T00:27:54.160Z,0
2018-01-03T00:29:02.983Z,0
2018-01-03T00:30:12.010Z,0
2018-01-03T00:31:21.108Z,0
2018-01-03T00:32:29.934Z,0
2018-01-03T00:33:38.761Z,0
2018-01-03T00:34:47.588Z,0
2018-01-03T00:35:56.514Z,0
2018-01-03T00:37:05.341Z,0
2018-01-03T00:38:14.443Z,0
2018-01-03T00:39:23.268Z,0
2018-01-03T00:40:32.094Z,0
2018-01-03T00:41:40.916Z,0
2018-01-03T00:42:49.750Z,0
2018-01-03T00:43:58.569Z,0
2018-01-03T00:45:07.396Z,0
2018-01-03T00:46:16.222Z,0
2018-01-03T00:47:25.105Z,0
2018-01-03T00:48:34.202Z,0
2018-01-03T00:49:43.028Z,0
2018-01-03T00:50:51.855Z,0
2018-01-03T00:52:00.681Z,0
2018-01-03T00:53:09.606Z,0
2018-01-03T00:54:18.444Z,0
2018-01-03T00:55:27.543Z,0
2018-01-03T00:56:36.369Z,0
2018-01-03T00:57:45.199Z,0
2018-01-03T00:58:54.171Z,0
2018-01-03T01:00:02.999Z,0
2018-01-03T01:01:11.823Z,0
2018-01-03T01:02:20.649Z,0
2018-01-03T01:03:29.477Z,0
2018-01-03T01:04:38.401Z,0
2018-01-03T01:05:47.227Z,0
2018-01-03T01:06:56.052Z,0
2018-01-03T01:08:04.878Z,0
2018-01-03T01:09:13.702Z,0
2018-01-03T01:10:22.529Z,0
2018-01-03T01:11:31.356Z,0
2018-01-03T01:12:40.178Z,0
2018-01-03T01:13:49.283Z,0
2018-01-03T01:14:58.109Z,0
2018-01-03T01:16:07.034Z,0
2018-01-03T01:17:15.858Z,0
2018-01-03T01:18:24.685Z,0
2018-01-03T01:19:33.509Z,0
2018-01-03T01:20:42.612Z,0
2018-01-03T01:21:51.735Z,0
2018-01-03T01:23:00.564Z,0
2018-01-03T01:24:09.387Z,0
2018-01-03T01:25:18.488Z,0
2018-01-03T01:26:27.315Z,0
2018-01-03T01:27:36.140Z,0
2018-01-03T01:28:44.966Z,0
2018-01-03T01:29:53.793Z,0
2018-01-03T01:31:02.624Z,0
2018-01-03T01:32:11.445Z,0
2018-01-03T01:33:20.567Z,0
2018-01-03T01:34:29.394Z,0
2018-01-03T01:35:38.219Z,0
2018-01-03T01:36:47.046Z,0
2018-01-03T01:37:56.148Z,0
2018-01-03T01:39:05.419Z,0
2018-01-03T01:40:14.247Z,0
2018-01-03T01:41:23.073Z,0
2018-01-03T01:42:31.898Z,0
2018-01-03T01:43:40.725Z,0
2018-01-03T01:44:49.873Z,0
2018-01-03T01:45:58.697Z,0
2018-01-03T01:47:07.525Z,0
2018-01-03T01:48:16.349Z,0
2018-01-03T01:49:25.181Z,0
2018-01-03T01:50:34.111Z,0
2018-01-03T01:51:42.933Z,0
2018-01-03T01:52:51.755Z,0
2018-01-03T01:54:00.856Z,0
2018-01-03T01:55:09.682Z,0
2018-01-03T01:56:18.708Z,0
2018-01-03T01:57:27.534Z,0
2018-01-03T01:58:36.360Z,0
2018-01-03T01:59:45.187Z,0
2018-01-03T02:00:54.011Z,0
2018-01-03T02:02:02.839Z,0
2018-01-03T02:03:11.663Z,0
2018-01-03T02:04:20.491Z,0
2018-01-03T02:05:29.316Z,0
2018-01-03T02:06:38.413Z,0
2018-01-03T02:07:47.541Z,0
2018-01-03T02:08:56.368Z,0
2018-01-03T02:10:05.197Z,0
2018-01-03T02:11:14.121Z,0
2018-01-03T02:12:22.945Z,0
2018-01-03T02:13:32.074Z,0
2018-01-03T02:14:40.897Z,0
2018-01-03T02:15:49.725Z,0
2018-01-03T02:16:58.824Z,0
2018-01-03T02:18:07.651Z,0
2018-01-03T02:19:16.573Z,0
2018-01-03T02:20:25.399Z,0
2018-01-03T02:21:34.500Z,0
2018-01-03T02:22:43.324Z,0
2018-01-03T02:23:52.150Z,0
2018-01-03T02:25:01.250Z,0
2018-01-03T02:26:10.074Z,0
2018-01-03T02:27:18.899Z,0
2018-01-03T02:28:27.725Z,0
2018-01-03T02:29:36.551Z,0
2018-01-03T02:30:45.530Z,0
2018-01-03T02:31:54.356Z,0
2018-01-03T02:33:03.182Z,0
2018-01-03T02:34:12.010Z,0
2018-01-03T02:35:20.853Z,0
2018-01-03T02:36:29.813Z,0
2018-01-03T02:37:38.655Z,0
2018-01-03T02:38:47.484Z,0
2018-01-03T02:39:56.310Z,0
2018-01-03T02:41:05.135Z,0
2018-01-03T02:42:14.261Z,0
2018-01-03T02:43:23.087Z,0
2018-01-03T02:44:31.913Z,0
2018-01-03T02:45:40.737Z,0
2018-01-03T02:46:49.562Z,0
2018-01-03T02:47:58.457Z,0
2018-01-03T02:49:07.265Z,0
2018-01-03T02:50:16.089Z,0
2018-01-03T02:51:24.915Z,0
2018-01-03T02:52:33.740Z,0
2018-01-03T02:53:42.568Z,0
2018-01-03T02:54:51.394Z,0
2018-01-03T02:56:00.219Z,0
2018-01-03T02:57:09.042Z,0
2018-01-03T02:58:17.869Z,0
2018-01-03T02:59:27.369Z,0
2018-01-03T03:00:36.195Z,0
2018-01-03T03:01:45.021Z,0
2018-01-03T03:02:53.848Z,0
2018-01-03T03:04:02.676Z,0
2018-01-03T03:05:11.704Z,0
2018-01-03T03:06:20.532Z,0
2018-01-03T03:07:29.357Z,0
2018-01-03T03:08:38.184Z,0
2018-01-03T03:09:47.007Z,0
2018-01-03T03:10:55.890Z,0
2018-01-03T03:12:04.718Z,0
2018-01-03T03:13:13.545Z,0
2018-01-03T03:14:22.370Z,0
2018-01-03T03:15:31.198Z,0
2018-01-03T03:16:40.596Z,0
2018-01-03T03:17:49.423Z,0
2018-01-03T03:18:58.250Z,0
2018-01-03T03:20:07.079Z,0
2018-01-03T03:21:15.906Z,0
2018-01-03T03:22:24.782Z,0
2018-01-03T03:23:33.608Z,0
2018-01-03T03:24:42.435Z,0
2018-01-03T03:25:51.262Z,0
2018-01-03T03:27:00.088Z,0
2018-01-03T03:28:08.916Z,0
2018-01-03T03:29:17.740Z,0
2018-01-03T03:30:26.569Z,0
2018-01-03T03:31:35.669Z,0
2018-01-03T03:32:44.494Z,0
2018-01-03T03:33:53.422Z,0
2018-01-03T03:35:02.250Z,0
2018-01-03T03:36:11.076Z,0
2018-01-03T03:37:19.902Z,0
2018-01-03T03:38:28.725Z,0
2018-01-03T03:39:37.750Z,0
2018-01-03T03:40:46.577Z,0
2018-01-03T03:41:55.402Z,0
2018-01-03T03:43:04.226Z,0
2018-01-03T03:44:13.055Z,0
2018-01-03T03:45:22.032Z,0
2018-01-03T03:46:30.862Z,0
2018-01-03T03:47:39.688Z,0
2018-01-03T03:48:48.512Z,0
2018-01-03T03:49:57.339Z,0
2018-01-03T03:51:06.517Z,0
2018-01-03T03:52:15.340Z,0
2018-01-03T03:53:24.166Z,0
2018-01-03T03:54:33.266Z,0
2018-01-03T03:55:42.094Z,0
2018-01-03T03:56:51.117Z,0
2018-01-03T03:57:59.945Z,0
2018-01-03T03:59:08.777Z,0
2018-01-03T04:00:17.597Z,0
2018-01-03T04:01:26.425Z,0
2018-01-03T04:02:35.351Z,0
2018-01-03T04:03:44.177Z,0
2018-01-03T04:04:53.005Z,0
2018-01-03T04:06:01.831Z,0
2018-01-03T04:07:10.656Z,0
2018-01-03T04:08:19.582Z,0
2018-01-03T04:09:28.410Z,0
2018-01-03T04:10:37.235Z,0
2018-01-03T04:11:46.062Z,0
2018-01-03T04:12:54.885Z,0
2018-01-03T04:14:03.864Z,0
2018-01-03T04:15:12.689Z,0
2018-01-03T04:16:21.521Z,0
2018-01-03T04:17:30.347Z,0
2018-01-03T04:18:39.172Z,0
2018-01-03T04:19:48.299Z,0
2018-01-03T04:20:57.123Z,0
2018-01-03T04:22:06.227Z,0
2018-01-03T04:23:15.053Z,0
2018-01-03T04:24:23.876Z,0
2018-01-03T04:25:32.703Z,0
2018-01-03T04:26:41.529Z,0
2018-01-03T04:27:50.354Z,0
2018-01-03T04:28:59.180Z,0
2018-01-03T04:30:08.008Z,0
2018-01-03T04:31:17.134Z,0
2018-01-03T04:32:25.960Z,0
2018-01-03T04:33:35.066Z,0
2018-01-03T04:34:44.165Z,0
2018-01-03T04:35:52.992Z,0
2018-01-03T04:37:01.869Z,0
2018-01-03T04:38:10.695Z,0
2018-01-03T04:39:19.795Z,0
2018-01-03T04:40:28.621Z,0
2018-01-03T04:41:37.723Z,0
2018-01-03T04:42:46.797Z,0
2018-01-03T04:43:55.623Z,0
2018-01-03T04:45:04.898Z,0
2018-01-03T04:46:13.723Z,0
2018-01-03T04:47:22.552Z,0
2018-01-03T04:48:31.486Z,0
2018-01-03T04:49:40.583Z,0
2018-01-03T04:50:49.409Z,0
2018-01-03T04:51:58.238Z,0
2018-01-03T04:53:07.064Z,0
2018-01-03T04:54:15.888Z,0
2018-01-03T04:55:24.713Z,0
2018-01-03T04:56:33.537Z,0
2018-01-03T04:57:42.363Z,0
2018-01-03T04:58:51.197Z,0
2018-01-03T05:00:00.173Z,0
2018-01-03T05:01:08.992Z,0
2018-01-03T05:02:18.093Z,0
2018-01-03T05:03:27.193Z,0
2018-01-03T05:04:36.024Z,0
2018-01-03T05:05:44.851Z,0
2018-01-03T05:06:53.675Z,0
2018-01-03T05:08:02.502Z,0
2018-01-03T05:09:11.331Z,0
2018-01-03T05:10:20.157Z,0
2018-01-03T05:11:29.086Z,0
2018-01-03T05:12:37.911Z,0
2018-01-03T05:13:46.737Z,0
2018-01-03T05:14:55.562Z,0
2018-01-03T05:16:04.389Z,0
2018-01-03T05:17:13.314Z,0
2018-01-03T05:18:22.140Z,0
2018-01-03T05:19:31.244Z,0
2018-01-03T05:20:40.068Z,0
2018-01-03T05:21:48.895Z,0
2018-01-03T05:22:57.872Z,0
2018-01-03T05:24:06.697Z,0
2018-01-03T05:25:15.528Z,0
2018-01-03T05:26:24.351Z,0
2018-01-03T05:27:33.179Z,0
2018-01-03T05:28:42.154Z,0
2018-01-03T05:29:50.982Z,0
2018-01-03T05:30:59.806Z,0
2018-01-03T05:32:08.632Z,0
2018-01-03T05:33:17.458Z,0
2018-01-03T05:34:26.335Z,0
2018-01-03T05:35:35.435Z,0
2018-01-03T05:36:44.260Z,0
2018-01-03T05:37:53.089Z,0
2018-01-03T05:39:01.917Z,0
2018-01-03T05:40:10.893Z,0
2018-01-03T05:41:19.716Z,0
2018-01-03T05:42:28.544Z,0
2018-01-03T05:43:37.372Z,0
2018-01-03T05:44:46.198Z,0
2018-01-03T05:45:55.146Z,0
2018-01-03T05:47:03.955Z,0
2018-01-03T05:48:13.055Z,0
2018-01-03T05:49:21.880Z,0
2018-01-03T05:50:30.710Z,0
2018-01-03T05:51:39.787Z,0
2018-01-03T05:52:48.613Z,0
2018-01-03T05:53:57.441Z,0
2018-01-03T05:55:06.270Z,0
2018-01-03T05:56:15.098Z,0
2018-01-03T05:57:23.973Z,0
2018-01-03T05:58:32.801Z,0
2018-01-03T05:59:41.625Z,0
2018-01-03T06:00:50.454Z,0
2018-01-03T06:01:59.282Z,0
2018-01-03T06:03:08.164Z,0
2018-01-03T06:04:16.996Z,0
2018-01-03T06:05:25.817Z,0
2018-01-03T06:06:34.645Z,0
2018-01-03T06:07:43.473Z,0
2018-01-03T06:08:52.453Z,0
2018-01-03T06:10:01.279Z,0
2018-01-03T06:11:10.106Z,0
2018-01-03T06:12:18.985Z,0
2018-01-03T06:13:27.764Z,0
2018-01-03T06:14:36.893Z,0
2018-01-03T06:15:45.723Z,0
2018-01-03T06:16:54.550Z,0
2018-01-03T06:18:03.381Z,0
2018-01-03T06:19:12.208Z,0
2018-01-03T06:20:21.036Z,0
2018-01-03T06:21:30.136Z,0
2018-01-03T06:22:38.963Z,0
2018-01-03T06:23:47.790Z,0
2018-01-03T06:24:56.619Z,0
2018-01-03T06:26:05.498Z,0
2018-01-03T06:27:14.329Z,0
2018-01-03T06:28:23.163Z,0
2018-01-03T06:29:31.988Z,0
2018-01-03T06:30:40.816Z,0
2018-01-03T06:31:49.745Z,0
2018-01-03T06:32:58.577Z,0
2018-01-03T06:34:07.406Z,0
2018-01-03T06:35:16.234Z,0
2018-01-03T06:36:25.061Z,0
2018-01-03T06:37:33.991Z,0
2018-01-03T06:38:42.820Z,0
2018-01-03T06:39:51.919Z,0
2018-01-03T06:41:00.749Z,0
2018-01-03T06:42:09.578Z,0
2018-01-03T06:43:18.457Z,0
2018-01-03T06:44:27.290Z,0
2018-01-03T06:45:36.115Z,0
2018-01-03T06:46:45.220Z,0
2018-01-03T06:47:54.047Z,0
2018-01-03T06:49:03.076Z,0
2018-01-03T06:50:11.907Z,0
2018-01-03T06:51:20.735Z,0
2018-01-03T06:52:29.562Z,0
2018-01-03T06:53:38.391Z,0
2018-01-03T06:54:47.271Z,0
2018-01-03T06:55:56.100Z,0
2018-01-03T06:57:04.929Z,0
2018-01-03T06:58:13.757Z,0
2018-01-03T06:59:22.586Z,0
2018-01-03T07:00:31.516Z,0
2018-01-03T07:01:40.345Z,0
2018-01-03T07:02:49.451Z,0
2018-01-03T07:03:58.280Z,0
2018-01-03T07:05:07.111Z,0
2018-01-03T07:06:16.040Z,0
2018-01-03T07:07:24.869Z,0
2018-01-03T07:08:33.701Z,0
2018-01-03T07:09:42.529Z,0
2018-01-03T07:10:51.630Z,0
2018-01-03T07:12:00.886Z,0
2018-01-03T07:13:09.717Z,0
2018-01-03T07:14:18.549Z,0
2018-01-03T07:15:27.378Z,0
2018-01-03T07:16:36.205Z,0
2018-01-03T07:17:45.135Z,0
2018-01-03T07:18:53.965Z,0
2018-01-03T07:20:02.794Z,0
2018-01-03T07:21:11.621Z,0
2018-01-03T07:22:20.454Z,0
2018-01-03T07:23:29.478Z,0
2018-01-03T07:24:38.307Z,0
2018-01-03T07:25:47.134Z,0
2018-01-03T07:26:55.966Z,0
2018-01-03T07:28:04.793Z,0
2018-01-03T07:29:13.924Z,0
2018-01-03T07:30:22.753Z,0
2018-01-03T07:31:31.581Z,5
2018-01-03T07:32:40.699Z,5
2018-01-03T07:33:49.527Z,5
2018-01-03T07:34:58.353Z,5
2018-01-03T07:36:07.187Z,5
2018-01-03T07:37:16.014Z,5
2018-01-03T07:38:24.843Z,5
2018-01-03T07:39:33.672Z,5
2018-01-03T07:40:42.779Z,10
2018-01-03T07:41:51.881Z,10
2018-01-03T07:43:00.711Z,10
2018-01-03T07:44:09.541Z,10
2018-01-03T07:45:18.767Z,10
2018-01-03T07:46:27.644Z,15
2018-01-03T07:47:36.472Z,15
2018-01-03T07:48:45.302Z,15
2018-01-03T07:49:54.131Z,15
2018-01-03T07:51:02.958Z,15
2018-01-03T07:52:11.886Z,15
2018-01-03T07:53:20.764Z,20
2018-01-03T07:54:29.591Z,20
2018-01-03T07:55:38.421Z,20
2018-01-03T07:56:47.251Z,20
2018-01-03T07:57:56.128Z,20
2018-01-03T07:59:04.959Z,20
2018-01-03T08:00:13.787Z,20
2018-01-03T08:01:22.613Z,25
2018-01-03T08:02:31.440Z,25
2018-01-03T08:03:40.320Z,25
2018-01-03T08:04:49.310Z,25
2018-01-03T08:05:58.141Z,30
2018-01-03T08:07:06.979Z,30
2018-01-03T08:08:16.343Z,30
2018-01-03T08:09:25.272Z,30
2018-01-03T08:10:34.101Z,35
2018-01-03T08:11:42.934Z,35
2018-01-03T08:12:51.761Z,35
2018-01-03T08:14:00.589Z,35
2018-01-03T08:15:09.518Z,40
2018-01-03T08:16:18.346Z,45
2018-01-03T08:17:27.175Z,45
2018-01-03T08:18:36.005Z,50
2018-01-03T08:19:44.830Z,55
2018-01-03T08:20:53.809Z,60
2018-01-03T08:22:02.640Z,60
2018-01-03T08:23:11.465Z,60
2018-01-03T08:24:20.292Z,60
2018-01-03T08:25:29.131Z,55
2018-01-03T08:26:38.112Z,50
2018-01-03T08:27:46.939Z,50
2018-01-03T08:28:55.768Z,40
2018-01-03T08:30:04.597Z,45
2018-01-03T08:31:13.428Z,25
2018-01-03T08:32:22.305Z,25
2018-01-03T08:33:31.134Z,30
2018-01-03T08:34:39.964Z,20
2018-01-03T08:35:48.790Z,15
2018-01-03T08:36:57.619Z,10
2018-01-03T08:38:06.599Z,10
2018-01-03T08:39:15.426Z,10
2018-01-03T08:40:24.253Z,10
2018-01-03T08:41:33.083Z,5
2018-01-03T08:42:41.911Z,5
2018-01-03T08:43:50.815Z,5
2018-01-03T08:44:59.640Z,5
2018-01-03T08:46:08.745Z,5
2018-01-03T08:47:17.574Z,0
2018-01-03T08:48:26.400Z,5
2018-01-03T08:49:35.328Z,5
2018-01-03T08:50:44.155Z,5
2018-01-03T08:51:52.981Z,5
2018-01-03T08:53:01.806Z,5
2018-01-03T08:54:10.921Z,5
2018-01-03T08:55:19.893Z,5
2018-01-03T08:56:28.721Z,5
2018-01-03T08:57:37.822Z,5
2018-01-03T08:58:46.648Z,5
2018-01-03T08:59:55.473Z,5
2018-01-03T09:01:04.451Z,5
2018-01-03T09:02:13.550Z,10
2018-01-03T09:03:22.377Z,10
2018-01-03T09:04:31.203Z,10
2018-01-03T09:05:40.029Z,15
2018-01-03T09:06:48.858Z,20
2018-01-03T09:07:57.680Z,25
2018-01-03T09:09:06.505Z,30
2018-01-03T09:10:15.333Z,35
2018-01-03T09:11:24.158Z,30
2018-01-03T09:12:33.032Z,35
2018-01-03T09:13:41.860Z,25
2018-01-03T09:14:50.685Z,20
2018-01-03T09:15:59.783Z,20
2018-01-03T09:17:08.607Z,20
2018-01-03T09:18:17.583Z,20
2018-01-03T09:19:26.407Z,25
2018-01-03T09:20:35.509Z,30
2018-01-03T09:21:44.337Z,30
2018-01-03T09:22:53.164Z,30
2018-01-03T09:24:02.082Z,40
2018-01-03T09:25:11.183Z,50
2018-01-03T09:26:20.284Z,60
2018-01-03T09:27:29.111Z,65
2018-01-03T09:28:37.938Z,80
2018-01-03T09:29:47.113Z,90
2018-01-03T09:30:55.944Z,95
2018-01-03T09:32:04.766Z,100
2018-01-03T09:33:13.591Z,95
2018-01-03T09:34:22.690Z,95
2018-01-03T09:35:31.716Z,100
2018-01-03T09:36:40.541Z,105
2018-01-03T09:37:49.368Z,110
2018-01-03T09:38:58.201Z,110
2018-01-03T09:40:07.031Z,120
2018-01-03T09:41:15.856Z,140
2018-01-03T09:42:24.689Z,145
2018-01-03T09:43:33.523Z,150
2018-01-03T09:44:42.344Z,150
2018-01-03T09:45:51.171Z,155
2018-01-03T09:47:00.446Z,150
2018-01-03T09:48:09.272Z,170
2018-01-03T09:49:18.099Z,175
2018-01-03T09:50:26.924Z,180
2018-01-03T09:51:35.750Z,210
2018-01-03T09:52:44.725Z,185
2018-01-03T09:53:53.551Z,195
2018-01-03T09:55:02.377Z,195
2018-01-03T09:56:11.203Z,190
2018-01-03T09:57:20.031Z,205
2018-01-03T09:58:29.185Z,195
2018-01-03T09:59:38.013Z,190
2018-01-03T10:00:46.838Z,185
2018-01-03T10:01:55.667Z,180
2018-01-03T10:03:04.765Z,185
2018-01-03T10:04:13.694Z,190
2018-01-03T10:05:22.521Z,180
2018-01-03T10:06:31.349Z,170
2018-01-03T10:07:40.179Z,175
2018-01-03T10:08:49.007Z,170
2018-01-03T10:09:57.834Z,195
2018-01-03T10:11:06.662Z,245
2018-01-03T10:12:15.490Z,195
2018-01-03T10:13:24.314Z,185
2018-01-03T10:14:33.142Z,195
2018-01-03T10:15:41.968Z,190
2018-01-03T10:16:50.794Z,200
2018-01-03T10:17:59.624Z,180
2018-01-03T10:19:08.453Z,185
2018-01-03T10:20:17.282Z,200
2018-01-03T10:21:26.393Z,195
2018-01-03T10:22:35.227Z,195
2018-01-03T10:23:44.056Z,205
2018-01-03T10:24:52.895Z,185
2018-01-03T10:26:01.997Z,185
2018-01-03T10:27:10.979Z,180
2018-01-03T10:28:19.806Z,175
2018-01-03T10:29:28.634Z,200
2018-01-03T10:30:37.461Z,225
2018-01-03T10:31:46.289Z,215
2018-01-03T10:32:55.217Z,230
2018-01-03T10:34:04.048Z,215
2018-01-03T10:35:12.876Z,215
2018-01-03T10:36:21.702Z,200
2018-01-03T10:37:30.529Z,175
2018-01-03T10:38:39.507Z,190
2018-01-03T10:39:48.334Z,170
2018-01-03T10:40:57.163Z,205
2018-01-03T10:42:05.990Z,175
2018-01-03T10:43:14.836Z,180
2018-01-03T10:44:23.797Z,160
2018-01-03T10:45:32.623Z,160
2018-01-03T10:46:41.450Z,195
2018-01-03T10:47:50.275Z,150
2018-01-03T10:48:59.104Z,150
2018-01-03T10:50:08.034Z,170
2018-01-03T10:51:16.863Z,170
2018-01-03T10:52:25.688Z,190
2018-01-03T10:53:34.521Z,175
2018-01-03T10:54:43.621Z,210
2018-01-03T10:55:52.747Z,220
2018-01-03T10:57:01.573Z,190
2018-01-03T10:58:10.400Z,200
2018-01-03T10:59:19.233Z,185
2018-01-03T11:00:28.075Z,170
2018-01-03T11:01:37.037Z,140
2018-01-03T11:02:45.865Z,160
2018-01-03T11:03:54.693Z,175
2018-01-03T11:05:03.518Z,185
2018-01-03T11:06:12.347Z,205
2018-01-03T11:07:21.475Z,230
2018-01-03T11:08:30.302Z,215
2018-01-03T11:09:39.130Z,180
2018-01-03T11:10:47.958Z,155
2018-01-03T11:11:56.784Z,115
2018-01-03T11:13:05.913Z,110
2018-01-03T11:14:14.743Z,120
2018-01-03T11:15:23.571Z,130
2018-01-03T11:16:32.673Z,115
2018-01-03T11:17:41.499Z,145
2018-01-03T11:18:50.425Z,130
2018-01-03T11:19:59.304Z,130
2018-01-03T11:21:08.411Z,120
2018-01-03T11:22:17.240Z,125
2018-01-03T11:23:26.067Z,115
2018-01-03T11:24:35.096Z,125
2018-01-03T11:25:43.925Z,140
2018-01-03T11:26:52.751Z,150
2018-01-03T11:28:01.583Z,165
2018-01-03T11:29:10.412Z,160
2018-01-03T11:30:19.388Z,155
2018-01-03T11:31:28.216Z,140
2018-01-03T11:32:37.045Z,120
2018-01-03T11:33:45.891Z,115
2018-01-03T11:34:54.721Z,140
2018-01-03T11:36:03.652Z,140
2018-01-03T11:37:12.478Z,150
2018-01-03T11:38:21.305Z,130
2018-01-03T11:39:30.134Z,150
2018-01-03T11:40:38.994Z,135
2018-01-03T11:41:47.972Z,135
2018-01-03T11:42:57.350Z,105
2018-01-03T11:44:06.180Z,115
2018-01-03T11:45:15.009Z,105
2018-01-03T11:46:23.834Z,95
2018-01-03T11:47:32.763Z,100
2018-01-03T11:48:41.591Z,105
2018-01-03T11:49:50.417Z,105
2018-01-03T11:50:59.245Z,85
2018-01-03T11:52:08.070Z,70
2018-01-03T11:53:17.321Z,75
2018-01-03T11:54:26.148Z,80
2018-01-03T11:55:34.986Z,80
2018-01-03T11:56:43.813Z,90
2018-01-03T11:57:52.643Z,80
2018-01-03T11:59:01.570Z,85
2018-01-03T12:00:10.397Z,75
2018-01-03T12:01:19.223Z,75
2018-01-03T12:02:28.048Z,70
2018-01-03T12:03:36.878Z,70
2018-01-03T12:04:45.800Z,80
2018-01-03T12:05:54.627Z,90
2018-01-03T12:07:03.731Z,80
2018-01-03T12:08:12.559Z,70
2018-01-03T12:09:21.659Z,60
2018-01-03T12:10:30.635Z,70
2018-01-03T12:11:39.461Z,65
2018-01-03T12:12:48.289Z,55
2018-01-03T12:13:57.116Z,55
2018-01-03T12:15:06.218Z,55
2018-01-03T12:16:15.323Z,55
2018-01-03T12:17:24.146Z,55
2018-01-03T12:18:32.973Z,55
2018-01-03T12:19:41.801Z,50
2018-01-03T12:20:50.665Z,60
2018-01-03T12:21:59.603Z,55
2018-01-03T12:23:08.428Z,60
2018-01-03T12:24:17.256Z,60
2018-01-03T12:25:26.080Z,60
2018-01-03T12:26:34.907Z,60
2018-01-03T12:27:43.783Z,60
2018-01-03T12:28:52.609Z,80
2018-01-03T12:30:01.438Z,85
2018-01-03T12:31:10.265Z,95
2018-01-03T12:32:19.365Z,95
2018-01-03T12:33:28.292Z,90
2018-01-03T12:34:37.118Z,90
2018-01-03T12:35:45.946Z,80
2018-01-03T12:36:54.771Z,80
2018-01-03T12:38:03.596Z,105
2018-01-03T12:39:12.423Z,100
2018-01-03T12:40:21.248Z,90
2018-01-03T12:41:30.075Z,80
2018-01-03T12:42:38.899Z,55
2018-01-03T12:43:47.728Z,60
2018-01-03T12:44:56.555Z,45
2018-01-03T12:46:05.380Z,50
2018-01-03T12:47:14.205Z,50
2018-01-03T12:48:23.029Z,60
2018-01-03T12:49:31.864Z,50
2018-01-03T12:50:40.835Z,60
2018-01-03T12:51:49.662Z,70
2018-01-03T12:52:58.493Z,80
2018-01-03T12:54:07.316Z,75
2018-01-03T12:55:16.140Z,65
2018-01-03T12:56:25.015Z,45
2018-01-03T12:57:33.840Z,35
2018-01-03T12:58:42.940Z,55
2018-01-03T12:59:51.768Z,55
2018-01-03T13:01:00.596Z,40
2018-01-03T13:02:09.420Z,45
2018-01-03T13:03:18.247Z,45
2018-01-03T13:04:27.345Z,35
2018-01-03T13:05:36.175Z,30
2018-01-03T13:06:45.269Z,30
2018-01-03T13:07:54.518Z,35
2018-01-03T13:09:03.343Z,30
2018-01-03T13:10:12.228Z,35
2018-01-03T13:11:21.084Z,30
2018-01-03T13:12:29.901Z,30
2018-01-03T13:13:38.876Z,35
2018-01-03T13:14:47.701Z,30
2018-01-03T13:15:56.526Z,40
2018-01-03T13:17:05.353Z,40
2018-01-03T13:18:14.176Z,50
2018-01-03T13:19:23.152Z,60
2018-01-03T13:20:31.983Z,60
2018-01-03T13:21:41.086Z,85
2018-01-03T13:22:49.911Z,95
2018-01-03T13:23:58.740Z,95
2018-01-03T13:25:07.667Z,85
2018-01-03T13:26:16.497Z,45
2018-01-03T13:27:25.319Z,45
2018-01-03T13:28:34.483Z,45
2018-01-03T13:29:43.746Z,45
2018-01-03T13:30:53.234Z,60
2018-01-03T13:32:02.062Z,55
2018-01-03T13:33:12.128Z,35
2018-01-03T13:34:20.955Z,35
2018-01-03T13:35:29.779Z,55
2018-01-03T13:36:38.706Z,40
2018-01-03T13:37:47.532Z,40
2018-01-03T13:38:56.409Z,40
2018-01-03T13:40:05.235Z,40
2018-01-03T13:41:14.061Z,50
2018-01-03T13:42:22.935Z,45
2018-01-03T13:43:31.761Z,40
2018-01-03T13:44:40.612Z,25
2018-01-03T13:45:49.439Z,25
2018-01-03T13:46:58.262Z,25
2018-01-03T13:48:07.190Z,25
2018-01-03T13:49:16.016Z,35
2018-01-03T13:50:24.842Z,20
2018-01-03T13:51:33.669Z,20
2018-01-03T13:52:42.770Z,20
2018-01-03T13:53:51.750Z,20
2018-01-03T13:55:00.575Z,15
2018-01-03T13:56:09.406Z,20
2018-01-03T13:57:18.511Z,25
2018-01-03T13:58:27.340Z,25
2018-01-03T13:59:36.214Z,20
2018-01-03T14:00:45.039Z,25
2018-01-03T14:01:54.140Z,25
2018-01-03T14:03:02.973Z,30
2018-01-03T14:04:11.943Z,40
2018-01-03T14:05:20.769Z,40
2018-01-03T14:06:29.597Z,40
2018-01-03T14:07:38.423Z,30
2018-01-03T14:08:47.253Z,30
2018-01-03T14:09:56.082Z,45
2018-01-03T14:11:04.903Z,35
2018-01-03T14:12:13.741Z,35
2018-01-03T14:13:22.568Z,40
2018-01-03T14:14:31.397Z,45
2018-01-03T14:15:40.225Z,30
2018-01-03T14:16:49.080Z,30
2018-01-03T14:17:57.943Z,30
2018-01-03T14:19:06.789Z,25
2018-01-03T14:20:15.916Z,15
2018-01-03T14:21:24.858Z,15
2018-01-03T14:22:33.687Z,15
2018-01-03T14:23:42.522Z,15
2018-01-03T14:24:51.357Z,15
2018-01-03T14:26:00.175Z,20
2018-01-03T14:27:09.049Z,25
2018-01-03T14:28:17.911Z,25
2018-01-03T14:29:27.051Z,20
2018-01-03T14:30:35.881Z,15
2018-01-03T14:31:44.706Z,15
2018-01-03T14:32:53.683Z,15
2018-01-03T14:34:02.510Z,10
2018-01-03T14:35:11.357Z,10
2018-01-03T14:36:20.184Z,10
2018-01-03T14:37:29.007Z,10
2018-01-03T14:38:37.887Z,10
2018-01-03T14:39:46.713Z,5
2018-01-03T14:40:56.001Z,5
2018-01-03T14:42:05.420Z,5
2018-01-03T14:43:14.570Z,5
2018-01-03T14:44:23.875Z,5
2018-01-03T14:45:33.003Z,10
2018-01-03T14:46:41.966Z,10
2018-01-03T14:47:51.426Z,10
2018-01-03T14:49:00.516Z,5
2018-01-03T14:50:10.112Z,5
2018-01-03T14:51:18.939Z,5
2018-01-03T14:52:27.771Z,5
2018-01-03T14:53:36.593Z,5
2018-01-03T14:54:45.417Z,5
2018-01-03T14:55:54.496Z,5
2018-01-03T14:57:03.594Z,5
2018-01-03T14:58:12.424Z,5
2018-01-03T14:59:21.522Z,5
2018-01-03T15:00:30.348Z,0
2018-01-03T15:01:39.174Z,0
2018-01-03T15:02:47.999Z,0
2018-01-03T15:03:57.102Z,0
2018-01-03T15:05:05.931Z,0
2018-01-03T15:06:14.758Z,0
2018-01-03T15:07:23.586Z,0
2018-01-03T15:08:32.413Z,0
2018-01-03T15:09:41.237Z,5
2018-01-03T15:10:50.064Z,0
2018-01-03T15:11:58.887Z,0
2018-01-03T15:13:07.715Z,0
2018-01-03T15:14:16.538Z,0
2018-01-03T15:15:25.368Z,0
2018-01-03T15:16:34.189Z,0
2018-01-03T15:17:43.014Z,0
2018-01-03T15:18:51.840Z,0
2018-01-03T15:20:00.667Z,0
2018-01-03T15:21:09.492Z,0
2018-01-03T15:22:18.595Z,0
2018-01-03T15:23:27.420Z,0
2018-01-03T15:24:36.244Z,0
2018-01-03T15:25:45.071Z,0
2018-01-03T15:26:53.900Z,0
2018-01-03T15:28:02.725Z,0
2018-01-03T15:29:11.551Z,0
2018-01-03T15:30:20.374Z,0
2018-01-03T15:31:29.202Z,0
2018-01-03T15:32:38.329Z,0
2018-01-03T15:33:47.154Z,0
2018-01-03T15:34:55.982Z,0
2018-01-03T15:36:05.084Z,0
2018-01-03T15:37:13.910Z,0
2018-01-03T15:38:22.884Z,0
2018-01-03T15:39:31.711Z,0
2018-01-03T15:40:40.536Z,0
2018-01-03T15:41:49.362Z,0
2018-01-03T15:42:58.186Z,0
2018-01-03T15:44:07.066Z,0
2018-01-03T15:45:15.894Z,0
2018-01-03T15:46:24.718Z,0
2018-01-03T15:47:33.543Z,0
2018-01-03T15:48:42.366Z,0
2018-01-03T15:49:51.192Z,0
2018-01-03T15:51:00.020Z,0
2018-01-03T15:52:08.846Z,0
2018-01-03T15:53:17.672Z,0
2018-01-03T15:54:26.497Z,0
2018-01-03T15:55:35.371Z,0
2018-01-03T15:56:44.200Z,0
2018-01-03T15:57:53.028Z,0
2018-01-03T15:59:02.130Z,0
2018-01-03T16:00:10.957Z,0
2018-01-03T16:01:19.833Z,0
2018-01-03T16:02:28.660Z,0
2018-01-03T16:03:37.484Z,0
2018-01-03T16:04:46.309Z,0
2018-01-03T16:05:55.133Z,0
2018-01-03T16:07:04.062Z,0
2018-01-03T16:08:12.888Z,0
2018-01-03T16:09:21.990Z,0
2018-01-03T16:10:30.828Z,0
2018-01-03T16:11:39.709Z,0
2018-01-03T16:12:48.536Z,0
2018-01-03T16:13:57.364Z,0
2018-01-03T16:15:06.190Z,0
2018-01-03T16:16:15.017Z,0
2018-01-03T16:17:23.841Z,0
2018-01-03T16:18:32.767Z,0
2018-01-03T16:19:41.592Z,0
2018-01-03T16:20:50.419Z,0
2018-01-03T16:21:59.244Z,0
2018-01-03T16:23:08.365Z,0
2018-01-03T16:24:17.770Z,0
2018-01-03T16:25:26.597Z,0
2018-01-03T16:26:35.422Z,0
2018-01-03T16:27:44.246Z,0
2018-01-03T16:28:53.072Z,0
2018-01-03T16:30:02.000Z,0
2018-01-03T16:31:10.872Z,0
2018-01-03T16:32:19.702Z,0
2018-01-03T16:33:28.530Z,0
2018-01-03T16:34:37.358Z,0
2018-01-03T16:35:46.508Z,0
2018-01-03T16:36:55.515Z,0
2018-01-03T16:38:04.334Z,0